createdAt,value
2023-02-24T11:27:42.791Z,99371.41
2023-02-24T11:30:38.377Z,99363.59
2023-02-24T11:33:17.484Z,99364.03
2023-02-24T11:36:06.730Z,99349.88
2023-02-24T11:39:17.782Z,99339.22
2023-02-24T11:41:53.220Z,99342.91
2023-02-24T11:44:39.294Z,99321.78
2023-02-24T11:47:13.232Z,99322.41
2023-02-24T11:49:45.509Z,99320.59
2023-02-24T11:52:29.657Z,99309.69
2023-02-24T11:54:59.849Z,99339.22
2023-02-24T11:57:37.748Z,99300.50
2023-02-24T12:00:20.182Z,99292.06
2023-02-24T12:03:13.035Z,99289.63
2023-02-24T12:05:52.826Z,99300.72
2023-02-24T12:08:41.875Z,99276.91
2023-02-24T12:11:20.630Z,99280.22
2023-02-24T12:14:28.830Z,99266.84
2023-02-24T12:17:19.830Z,99257.66
2023-02-24T12:19:51.792Z,99265.97
2023-02-24T12:22:18.498Z,99254.06
2023-02-24T12:24:51.642Z,99251.34
2023-02-24T12:27:33.360Z,99234.75
2023-02-24T12:30:23.037Z,99237.25
2023-02-24T12:33:19.434Z,99238.09
2023-02-24T12:36:05.022Z,99235.22
2023-02-24T12:38:48.794Z,99229.44
2023-02-24T12:41:37.332Z,99221.44
2023-02-24T12:44:25.079Z,99221.28
2023-02-24T12:47:15.583Z,99205.47
2023-02-24T12:50:10.044Z,99219.00
2023-02-24T12:52:42.430Z,99212.88
2023-02-24T12:55:13.807Z,99213.28
2023-02-24T12:58:09.263Z,99204.63
2023-02-24T13:00:40.852Z,99198.31
2023-02-24T13:03:22.393Z,99200.97
2023-02-24T13:05:55.960Z,99185.19
2023-02-24T13:08:42.340Z,99189.31
2023-02-24T13:11:30.343Z,99184.34
2023-02-24T13:14:19.634Z,99179.47
2023-02-24T13:16:46.290Z,99192.59
2023-02-24T13:19:29.794Z,99182.28
2023-02-24T13:22:01.677Z,99173.34
2023-02-24T13:24:28.558Z,99168.88
2023-02-24T13:27:17.651Z,99161.84
2023-02-24T13:29:57.522Z,99153.25
2023-02-24T13:32:34.308Z,99134.59
2023-02-24T13:35:02.445Z,99137.72
2023-02-24T13:37:34.507Z,99135.28
2023-02-24T13:40:12.290Z,99134.47
2023-02-24T13:42:38.864Z,99130.97
2023-02-24T13:45:13.260Z,99132.56
2023-02-24T13:47:43.009Z,99130.75
2023-02-24T13:50:20.834Z,99123.31
2023-02-24T13:53:11.234Z,99123.25
2023-02-24T13:55:54.730Z,99113.47
2023-02-24T13:58:46.448Z,99113.47
2023-02-24T14:01:15.855Z,99100.16
2023-02-24T14:03:47.188Z,99100.75
2023-02-24T14:06:23.542Z,99092.31
2023-02-24T14:08:56.513Z,99098.69
2023-02-24T14:11:27.060Z,99099.50
2023-02-24T14:13:55.838Z,99095.88
2023-02-24T14:16:31.390Z,99099.06
2023-02-24T14:19:01.852Z,99102.19
2023-02-24T14:21:33.705Z,99100.09
2023-02-24T14:24:10.792Z,99090.84
2023-02-24T14:26:53.093Z,99084.66
2023-02-24T14:29:38.381Z,99078.56
2023-02-24T14:32:20.618Z,99070.72
2023-02-24T14:34:48.099Z,99081.84
2023-02-24T14:37:17.704Z,99069.31
2023-02-24T14:39:58.602Z,99071.91
2023-02-24T14:42:26.585Z,99067.03
2023-02-24T14:44:56.029Z,99060.06
2023-02-24T14:47:25.133Z,99065.00
2023-02-24T14:49:59.375Z,99063.50
2023-02-24T14:52:45.715Z,99047.28
2023-02-24T14:55:27.625Z,99041.75
2023-02-24T14:58:18.129Z,99057.88
2023-02-24T15:00:50.263Z,99040.25
2023-02-24T15:03:25.231Z,99025.09
2023-02-24T15:05:58.171Z,99033.22
2023-02-24T15:08:35.439Z,99026.63
2023-02-24T15:11:10.314Z,99009.84
2023-02-24T15:13:41.968Z,99029.31
2023-02-24T15:16:21.894Z,99022.06
2023-02-24T15:18:54.276Z,99019.81
2023-02-24T15:21:30.399Z,99019.31
2023-02-24T15:24:18.826Z,99008.44
2023-02-24T15:26:59.428Z,99006.22
2023-02-24T15:29:28.560Z,99010.47
2023-02-24T15:31:57.514Z,98989.16
2023-02-24T15:34:31.089Z,98989.53
2023-02-24T15:37:03.237Z,98998.34
2023-02-24T15:39:31.575Z,98992.44
2023-02-24T15:42:16.937Z,98978.78
2023-02-24T15:44:55.484Z,98974.06
2023-02-24T15:47:25.353Z,98969.75
2023-02-24T15:49:52.330Z,98979.25
2023-02-24T15:52:29.698Z,98961.69
2023-02-24T15:54:58.101Z,98963.69
2023-02-24T15:57:25.634Z,98951.25
2023-02-24T17:28:01.302Z,98883.72
2023-02-24T17:30:31.043Z,98893.59
2023-02-24T17:32:57.779Z,98883.59
2023-02-24T17:35:24.624Z,98883.16
2023-02-24T17:37:51.173Z,98885.81
2023-02-24T17:40:18.036Z,98885.94
2023-02-24T17:42:44.818Z,98885.34
2023-02-24T17:45:13.256Z,98873.19
2023-02-24T17:47:40.662Z,98879.66
2023-02-24T17:50:10.145Z,98864.50
2023-02-24T17:52:37.331Z,98872.25
2023-02-24T17:55:05.700Z,98885.13
2023-02-24T17:57:34.209Z,98878.75
2023-02-24T18:00:00.957Z,98875.50
2023-02-24T18:02:27.514Z,98882.00
2023-02-24T18:04:54.570Z,98876.78
2023-02-24T18:07:21.331Z,98883.16
2023-02-24T18:09:47.827Z,98881.31
2023-02-24T18:12:14.468Z,98870.16
2023-02-24T18:14:41.080Z,98868.34
2023-02-24T18:17:07.668Z,98865.88
2023-02-24T18:19:34.309Z,98867.25
2023-02-24T18:22:00.871Z,98872.03
2023-02-24T18:24:27.461Z,98876.91
2023-02-24T18:26:54.064Z,98875.88
2023-02-24T18:29:20.843Z,98872.72
2023-02-24T18:31:47.597Z,98872.75
2023-02-24T18:34:14.330Z,98881.31
2023-02-24T18:36:41.042Z,98879.69
2023-02-24T18:39:09.124Z,98871.44
2023-02-24T18:41:35.652Z,98878.88
2023-02-24T18:44:02.253Z,98879.69
2023-02-24T18:46:28.953Z,98881.31
2023-02-24T18:48:56.082Z,98892.78
2023-02-24T18:51:26.263Z,98887.69
2023-02-24T18:53:53.780Z,98887.69
2023-02-24T18:56:23.657Z,98882.94
2023-02-24T18:58:52.769Z,98881.75
2023-02-24T19:01:29.528Z,98880.84
2023-02-24T19:03:57.413Z,98879.69
2023-02-24T19:06:27.041Z,98876.22
2023-02-24T19:09:02.799Z,98882.47
2023-02-24T19:11:29.968Z,98887.94
2023-02-24T19:13:56.553Z,98876.44
2023-02-24T19:16:23.692Z,98875.97
2023-02-24T19:18:52.402Z,98870.66
2023-02-24T19:21:19.301Z,98875.97
2023-02-24T19:23:46.562Z,98865.06
2023-02-24T19:26:18.292Z,98868.91
2023-02-24T19:28:45.103Z,98874.72
2023-02-24T19:31:12.478Z,98873.41
2023-02-24T19:33:39.058Z,98878.28
2023-02-24T19:36:05.959Z,98884.66
2023-02-24T19:38:32.409Z,98884.69
2023-02-24T19:40:59.630Z,98884.19
2023-02-24T19:43:26.440Z,98890.59
2023-02-24T19:45:52.925Z,98895.94
2023-02-24T19:48:19.521Z,98888.50
2023-02-24T19:50:46.376Z,98896.50
2023-02-24T19:53:13.017Z,98880.50
2023-02-24T19:55:39.630Z,98883.16
2023-02-24T19:58:06.177Z,98888.50
2023-02-24T20:00:32.748Z,98892.19
2023-02-24T20:02:59.327Z,98892.19
2023-02-24T20:05:25.851Z,98885.25
2023-02-24T20:07:52.428Z,98893.50
2023-02-24T20:10:19.161Z,98898.84
2023-02-24T20:12:45.714Z,98897.78
2023-02-24T20:15:12.554Z,98910.31
2023-02-24T20:17:39.190Z,98901.28
2023-02-24T20:20:06.523Z,98905.53
2023-02-24T20:22:33.137Z,98901.28
2023-02-24T20:24:59.840Z,98901.28
2023-02-24T20:27:26.477Z,98907.41
2023-02-24T20:29:56.242Z,98907.19
2023-02-24T20:32:23.516Z,98909.28
2023-02-24T20:34:50.619Z,98907.41
2023-02-24T20:37:17.362Z,98910.06
2023-02-24T20:39:43.882Z,98912.06
2023-02-24T20:42:12.215Z,98905.66
2023-02-24T20:44:38.762Z,98912.66
2023-02-24T20:47:05.557Z,98907.31
2023-02-24T20:49:33.090Z,98907.66
2023-02-24T20:51:59.668Z,98907.44
2023-02-24T20:54:26.625Z,98903.72
2023-02-24T20:56:53.102Z,98906.38
2023-02-24T20:59:22.289Z,98913.13
2023-02-24T21:01:49.952Z,98905.56
2023-02-24T21:04:19.885Z,98919.50
2023-02-24T21:06:48.156Z,98917.09
2023-02-24T21:09:15.626Z,98904.78
2023-02-24T21:11:42.245Z,98901.88
2023-02-24T21:14:14.044Z,98910.78
2023-02-24T21:16:40.552Z,98913.94
2023-02-24T21:19:07.072Z,98903.25
2023-02-24T21:21:33.632Z,98908.34
2023-02-24T21:24:00.213Z,98902.78
2023-02-24T21:26:29.250Z,98894.78
2023-02-24T21:28:57.808Z,98894.78
2023-02-24T21:31:25.396Z,98898.50
2023-02-24T21:33:52.705Z,98897.44
2023-02-24T21:36:23.602Z,98898.03
2023-02-24T21:38:50.377Z,98889.00
2023-02-24T21:41:19.558Z,98899.66
2023-02-24T21:43:46.874Z,98898.84
2023-02-24T21:46:15.520Z,98890.03
2023-02-24T21:48:43.114Z,98884.44
2023-02-24T21:51:12.778Z,98894.09
2023-02-24T21:53:41.127Z,98893.25
2023-02-24T21:56:11.167Z,98882.81
2023-02-24T21:58:39.551Z,98892.22
2023-02-24T22:01:18.276Z,98887.59
2023-02-24T22:03:45.534Z,98890.59
2023-02-24T22:06:14.254Z,98889.56
2023-02-24T22:08:43.413Z,98889.00
2023-02-24T22:11:12.186Z,98890.84
2023-02-24T22:13:39.911Z,98889.00
2023-02-24T22:16:12.929Z,98896.53
2023-02-24T22:18:40.236Z,98892.69
2023-02-24T22:21:19.094Z,98882.69
2023-02-24T22:23:48.245Z,98903.38
2023-02-24T22:26:16.935Z,98904.19
2023-02-24T22:28:44.893Z,98901.75
2023-02-24T22:31:13.733Z,98905.00
2023-02-24T22:33:42.068Z,98908.72
2023-02-24T22:36:11.944Z,98905.00
2023-02-24T22:38:39.360Z,98905.44
2023-02-24T22:41:12.101Z,98907.31
2023-02-24T22:43:38.961Z,98905.94
2023-02-24T22:46:08.466Z,98904.53
2023-02-24T22:48:36.302Z,98902.69
2023-02-24T22:51:05.430Z,98903.50
2023-02-24T22:53:37.639Z,98906.84
2023-02-24T22:56:04.310Z,98917.53
2023-02-24T22:58:32.348Z,98902.34
2023-02-24T23:00:59.879Z,98910.59
2023-02-24T23:03:31.096Z,98915.44
2023-02-24T23:06:03.792Z,98916.25
2023-02-24T23:08:32.253Z,98909.75
2023-02-24T23:11:08.981Z,98917.09
2023-02-24T23:13:35.601Z,98910.59
2023-02-24T23:16:03.615Z,98915.94
2023-02-24T23:18:31.346Z,98918.81
2023-02-24T23:21:03.361Z,98913.47
2023-02-24T23:23:31.615Z,98912.66
2023-02-24T23:25:58.773Z,98922.53
2023-02-24T23:28:26.584Z,98913.66
2023-02-24T23:30:54.050Z,98906.13
2023-02-24T23:33:21.367Z,98908.56
2023-02-24T23:35:48.056Z,98914.75
2023-02-24T23:38:15.214Z,98913.09
2023-02-24T23:40:50.041Z,98923.19
2023-02-24T23:43:17.250Z,98918.69
2023-02-24T23:45:43.768Z,98921.13
2023-02-24T23:48:13.654Z,98915.53
2023-02-24T23:50:41.465Z,98925.84
2023-02-24T23:53:09.877Z,98922.84
2023-02-24T23:55:39.038Z,98914.63
2023-02-24T23:58:05.650Z,98913.66
